createdAt,value
2017-09-21T00:00:30.960Z,87.70
2017-09-21T00:01:30.944Z,88.08
2017-09-21T00:02:30.926Z,87.85
2017-09-21T00:03:30.910Z,89.03
2017-09-21T00:04:30.892Z,89.12
2017-09-21T00:05:30.875Z,88.27
2017-09-21T00:06:30.898Z,88.74
2017-09-21T00:07:30.843Z,87.75
2017-09-21T00:08:30.831Z,88.17
2017-09-21T00:09:30.809Z,88.17
2017-09-21T00:10:30.792Z,87.79
2017-09-21T00:11:30.775Z,87.51
2017-09-21T00:12:30.757Z,87.70
2017-09-21T00:13:30.740Z,88.17
2017-09-21T00:14:30.725Z,87.70
2017-09-21T00:15:30.708Z,87.42
2017-09-21T00:16:30.690Z,86.85
2017-09-21T00:17:30.674Z,86.66
2017-09-21T00:18:30.657Z,86.76
2017-09-21T00:19:30.640Z,86.85
2017-09-21T00:20:30.623Z,86.76
2017-09-21T00:21:30.613Z,86.94
2017-09-21T00:22:30.589Z,87.42
2017-09-21T00:23:30.572Z,87.79
2017-09-21T00:24:30.554Z,87.98
2017-09-21T00:25:30.538Z,87.61
2017-09-21T00:26:30.521Z,87.32
2017-09-21T00:27:30.508Z,87.61
2017-09-21T00:28:30.487Z,87.61
2017-09-21T00:29:30.470Z,87.79
2017-09-21T00:30:30.453Z,87.70
2017-09-21T00:31:30.436Z,88.17
2017-09-21T00:32:30.418Z,88.46
2017-09-21T00:33:30.400Z,89.22
2017-09-21T00:34:30.383Z,89.22
2017-09-21T00:35:30.367Z,88.46
2017-09-21T00:36:30.350Z,88.84
2017-09-21T00:37:30.331Z,89.03
2017-09-21T00:38:30.317Z,89.03
2017-09-21T00:39:30.299Z,88.55
2017-09-21T00:40:30.282Z,88.13
2017-09-21T00:41:30.265Z,89.36
2017-09-21T00:42:30.247Z,89.50
2017-09-21T00:43:30.230Z,89.73
2017-09-21T00:44:30.213Z,89.69
2017-09-21T00:45:30.197Z,89.69
2017-09-21T00:46:30.179Z,89.22
2017-09-21T00:47:30.164Z,88.55
2017-09-21T00:48:30.146Z,87.61
2017-09-21T00:49:30.130Z,87.70
2017-09-21T00:50:30.113Z,87.42
2017-09-21T00:51:30.097Z,87.61
2017-09-21T00:52:30.082Z,87.42
2017-09-21T00:53:30.062Z,87.42
2017-09-21T00:54:30.046Z,87.13
2017-09-21T00:55:30.028Z,87.32
2017-09-21T00:56:30.011Z,87.32
2017-09-21T00:57:29.994Z,87.89
2017-09-21T00:58:29.976Z,88.23
2017-09-21T00:59:29.960Z,88.79
2017-09-21T01:00:29.941Z,89.92
2017-09-21T01:01:29.925Z,89.73
2017-09-21T01:02:29.908Z,89.54
2017-09-21T01:03:29.891Z,89.03
2017-09-21T01:04:29.873Z,88.51
2017-09-21T01:05:29.856Z,88.46
2017-09-21T01:06:29.839Z,88.51
2017-09-21T01:07:29.822Z,88.27
2017-09-21T01:08:29.804Z,88.55
2017-09-21T01:09:29.787Z,87.70
2017-09-21T01:10:29.770Z,87.89
2017-09-21T01:11:29.752Z,87.75
2017-09-21T01:12:29.737Z,88.23
2017-09-21T01:13:29.719Z,88.23
2017-09-21T01:14:29.702Z,89.07
2017-09-21T01:15:29.685Z,89.45
2017-09-21T01:16:29.667Z,89.83
2017-09-21T01:17:29.650Z,89.83
2017-09-21T01:18:29.633Z,89.64
2017-09-21T01:19:29.620Z,89.64
2017-09-21T01:20:29.599Z,90.11
2017-09-21T01:21:29.585Z,91.25
2017-09-21T01:22:29.566Z,92.00
2017-09-21T01:23:29.548Z,91.15
2017-09-21T01:24:29.531Z,90.11
2017-09-21T01:25:29.516Z,89.07
2017-09-21T01:26:29.499Z,88.98
2017-09-21T01:27:29.480Z,88.04
2017-09-21T01:28:29.460Z,88.51
2017-09-21T01:29:29.445Z,87.61
2017-09-21T01:30:29.427Z,87.89
2017-09-21T01:31:29.410Z,87.42
2017-09-21T01:32:29.393Z,87.37
2017-09-21T01:33:29.376Z,87.79
2017-09-21T01:34:29.358Z,88.32
2017-09-21T01:35:29.341Z,88.32
2017-09-21T01:36:29.324Z,88.36
2017-09-21T01:37:29.306Z,87.70
2017-09-21T01:38:29.289Z,88.32
2017-09-21T01:39:29.274Z,88.32
2017-09-21T01:40:29.255Z,88.42
2017-09-21T01:41:29.239Z,89.17
2017-09-21T01:42:29.223Z,89.64
2017-09-21T01:43:29.206Z,89.64
2017-09-21T01:44:29.188Z,89.54
2017-09-21T01:45:29.171Z,89.36
2017-09-21T01:46:29.156Z,89.54
2017-09-21T01:47:29.138Z,88.98
2017-09-21T01:48:29.120Z,88.51
2017-09-21T01:49:29.104Z,88.23
2017-09-21T01:50:29.087Z,88.51
2017-09-21T01:51:29.071Z,88.32
2017-09-21T01:52:29.053Z,88.70
2017-09-21T01:53:29.039Z,87.94
2017-09-21T01:54:29.018Z,87.75
2017-09-21T01:55:29.002Z,87.18
2017-09-21T01:56:28.984Z,87.99
2017-09-21T01:57:28.969Z,88.18
2017-09-21T01:58:28.950Z,89.69
2017-09-21T01:59:28.935Z,91.39
2017-09-21T02:00:28.916Z,92.43
2017-09-21T02:01:28.902Z,93.18
2017-09-21T02:02:28.882Z,93.28
2017-09-21T02:03:28.864Z,92.76
2017-09-21T02:04:28.845Z,93.70
2017-09-21T02:05:28.828Z,93.66
2017-09-21T02:06:28.810Z,92.43
2017-09-21T02:07:28.793Z,91.58
2017-09-21T02:08:28.775Z,91.77
2017-09-21T02:09:28.757Z,91.01
2017-09-21T02:10:28.739Z,90.92
2017-09-21T02:11:28.722Z,90.82
2017-09-21T02:12:28.740Z,90.35
2017-09-21T02:13:28.684Z,89.40
2017-09-21T02:14:28.667Z,89.59
2017-09-21T02:15:28.654Z,90.21
2017-09-21T02:16:28.632Z,91.53
2017-09-21T02:17:28.613Z,91.91
2017-09-21T02:18:28.597Z,92.19
2017-09-21T02:19:28.581Z,92.29
2017-09-21T02:20:28.560Z,92.29
2017-09-21T02:21:28.542Z,93.04
2017-09-21T02:22:28.524Z,92.52
2017-09-21T02:23:28.515Z,92.52
2017-09-21T02:24:28.489Z,93.75
2017-09-21T02:25:28.474Z,94.22
2017-09-21T02:26:28.464Z,94.41
2017-09-21T02:27:28.436Z,94.03
2017-09-21T02:28:28.416Z,94.13
2017-09-21T02:29:28.400Z,93.66
2017-09-21T02:30:28.381Z,93.37
2017-09-21T02:31:28.364Z,92.52
2017-09-21T02:32:28.344Z,92.14
2017-09-21T02:33:28.326Z,93.09
2017-09-21T02:34:28.310Z,92.24
2017-09-21T02:35:28.292Z,91.44
2017-09-21T02:36:28.272Z,91.30
2017-09-21T02:37:28.256Z,91.01
2017-09-21T02:38:28.237Z,91.39
2017-09-21T02:39:28.220Z,92.05
2017-09-21T02:40:28.202Z,93.18
2017-09-21T02:41:28.184Z,94.18
2017-09-21T02:42:28.166Z,94.93
2017-09-21T02:43:28.150Z,95.17
2017-09-21T02:44:28.131Z,94.41
2017-09-21T02:45:28.113Z,94.22
2017-09-21T02:46:28.095Z,94.03
2017-09-21T02:47:28.079Z,94.03
2017-09-21T02:48:28.061Z,93.84
2017-09-21T02:49:28.044Z,93.94
2017-09-21T02:50:28.024Z,92.99
2017-09-21T02:51:28.005Z,92.71
2017-09-21T02:52:27.988Z,91.96
2017-09-21T02:53:27.971Z,93.09
2017-09-21T02:54:27.954Z,92.90
2017-09-21T02:55:27.936Z,92.90
2017-09-21T02:56:27.917Z,92.71
2017-09-21T02:57:27.900Z,92.76
2017-09-21T02:58:27.882Z,92.76
2017-09-21T02:59:27.864Z,92.00
2017-09-21T03:00:27.845Z,92.47
2017-09-21T03:01:27.832Z,92.43
2017-09-21T03:02:27.810Z,91.39
2017-09-21T03:03:27.791Z,91.20
2017-09-21T03:04:27.773Z,91.39
2017-09-21T03:05:27.753Z,92.99
2017-09-21T03:06:27.737Z,92.24
2017-09-21T03:07:27.718Z,89.08
2017-09-21T03:08:27.699Z,88.04
2017-09-21T03:09:27.681Z,87.19
2017-09-21T03:10:27.663Z,86.95
2017-09-21T03:11:27.644Z,86.72
2017-09-21T03:12:27.624Z,87.43
2017-09-21T03:13:27.605Z,87.10
2017-09-21T03:14:27.587Z,86.53
2017-09-21T03:15:27.569Z,86.34
2017-09-21T03:16:27.550Z,87.00
2017-09-21T03:17:27.532Z,87.57
2017-09-21T03:18:27.513Z,88.04
2017-09-21T03:19:27.495Z,88.51
2017-09-21T03:20:27.474Z,88.60
2017-09-21T03:21:27.456Z,88.13
2017-09-21T03:22:27.436Z,87.57
2017-09-21T03:23:27.418Z,87.10
2017-09-21T03:24:27.434Z,87.19
2017-09-21T03:25:27.381Z,87.29
2017-09-21T03:26:27.361Z,87.48
2017-09-21T03:27:27.340Z,87.10
2017-09-21T03:28:27.322Z,86.15
2017-09-21T03:29:27.302Z,87.10
2017-09-21T03:30:27.284Z,87.66
2017-09-21T03:31:27.265Z,88.60
2017-09-21T03:32:27.245Z,88.89
2017-09-21T03:33:27.226Z,88.60
2017-09-21T03:34:27.207Z,88.37
2017-09-21T03:35:27.185Z,87.43
2017-09-21T03:36:27.167Z,87.48
2017-09-21T03:37:27.148Z,86.34
2017-09-21T03:38:27.130Z,85.96
2017-09-21T03:39:27.111Z,85.87
2017-09-21T03:40:27.091Z,87.10
2017-09-21T03:41:27.072Z,86.72
2017-09-21T03:42:27.054Z,87.48
2017-09-21T03:43:27.035Z,87.85
2017-09-21T03:44:27.016Z,87.19
2017-09-21T03:45:26.996Z,87.19
2017-09-21T03:46:26.977Z,87.29
2017-09-21T03:47:26.958Z,87.48
2017-09-21T03:48:26.939Z,87.38
2017-09-21T03:49:26.920Z,87.19
2017-09-21T03:50:26.902Z,87.57
2017-09-21T03:51:26.890Z,88.04
2017-09-21T03:52:26.863Z,88.23
2017-09-21T03:53:26.844Z,88.13
2017-09-21T03:54:26.824Z,89.36
2017-09-21T03:55:26.810Z,90.40
2017-09-21T03:56:26.788Z,89.64
2017-09-21T03:57:26.769Z,89.55
2017-09-21T03:58:26.751Z,89.17
2017-09-21T03:59:26.733Z,89.55
2017-09-21T04:00:26.714Z,89.55
2017-09-21T04:01:26.694Z,89.64
2017-09-21T04:02:26.675Z,88.84
2017-09-21T04:03:26.658Z,89.12
2017-09-21T04:04:26.636Z,89.08
2017-09-21T04:05:26.618Z,89.08
2017-09-21T04:06:26.600Z,88.56
2017-09-21T04:07:26.581Z,87.71
2017-09-21T04:08:26.563Z,87.05
2017-09-21T04:09:26.544Z,85.72
2017-09-21T04:10:26.526Z,86.10
2017-09-21T04:11:26.509Z,85.59
2017-09-21T04:12:26.489Z,87.10
2017-09-21T04:13:26.470Z,87.76
2017-09-21T04:14:26.452Z,88.42
2017-09-21T04:15:26.434Z,88.23
2017-09-21T04:16:26.415Z,87.76
2017-09-21T04:17:26.396Z,87.38
2017-09-21T04:18:26.378Z,87.29
2017-09-21T04:19:26.360Z,87.38
2017-09-21T04:20:26.341Z,87.85
2017-09-21T04:21:26.324Z,88.42
2017-09-21T04:22:26.307Z,88.23
2017-09-21T04:23:26.288Z,87.95
2017-09-21T04:24:26.269Z,87.71
2017-09-21T04:25:26.251Z,87.05
2017-09-21T04:26:26.233Z,85.91
2017-09-21T04:27:26.216Z,85.72
2017-09-21T04:28:26.197Z,84.78
2017-09-21T04:29:26.179Z,84.12
2017-09-21T04:30:26.161Z,84.41
2017-09-21T04:31:26.143Z,84.22
2017-09-21T04:32:26.124Z,84.12
2017-09-21T04:33:26.106Z,85.40
2017-09-21T04:34:26.088Z,86.44
2017-09-21T04:35:26.070Z,87.38
2017-09-21T04:36:26.051Z,87.48
2017-09-21T04:37:26.034Z,88.04
2017-09-21T04:38:26.016Z,89.08
2017-09-21T04:39:25.998Z,89.83
2017-09-21T04:40:25.983Z,89.83
2017-09-21T04:41:25.962Z,88.98
2017-09-21T04:42:25.944Z,88.32
2017-09-21T04:43:25.928Z,88.13
2017-09-21T04:44:25.906Z,88.23
2017-09-21T04:45:25.889Z,88.42
2017-09-21T04:46:25.875Z,88.23
2017-09-21T04:47:25.852Z,87.38
2017-09-21T04:48:25.834Z,87.48
2017-09-21T04:49:25.816Z,88.23
2017-09-21T04:50:25.799Z,89.36
2017-09-21T04:51:25.780Z,90.02
2017-09-21T04:52:25.761Z,90.31
2017-09-21T04:53:25.745Z,92.10
2017-09-21T04:54:25.726Z,93.04
2017-09-21T04:55:25.709Z,92.66
2017-09-21T04:56:25.689Z,92.10
2017-09-21T04:57:25.703Z,92.29
2017-09-21T04:58:25.655Z,91.53
2017-09-21T04:59:25.634Z,91.53
2017-09-21T05:00:25.615Z,90.87
2017-09-21T05:01:25.599Z,90.78
2017-09-21T05:02:25.588Z,91.16
2017-09-21T05:03:25.564Z,91.44
2017-09-21T05:04:25.543Z,91.53
2017-09-21T05:05:25.526Z,91.72
2017-09-21T05:06:25.510Z,92.10
2017-09-21T05:07:25.489Z,92.19
2017-09-21T05:08:25.470Z,92.66
2017-09-21T05:09:25.453Z,92.95
2017-09-21T05:10:25.434Z,91.72
2017-09-21T05:11:25.416Z,91.63
2017-09-21T05:12:25.400Z,91.35
2017-09-21T05:13:25.379Z,91.82
2017-09-21T05:14:25.361Z,90.97
2017-09-21T05:15:25.343Z,90.21
2017-09-21T05:16:25.324Z,90.78
2017-09-21T05:17:25.306Z,90.68
2017-09-21T05:18:25.288Z,90.59
2017-09-21T05:19:25.270Z,90.21
2017-09-21T05:20:25.252Z,90.12
2017-09-21T05:21:25.234Z,90.87
2017-09-21T05:22:25.215Z,90.97
2017-09-21T05:23:25.198Z,90.31
2017-09-21T05:24:25.179Z,90.21
2017-09-21T05:25:25.161Z,90.12
2017-09-21T05:26:25.144Z,90.31
2017-09-21T05:27:25.126Z,90.50
2017-09-21T05:28:25.107Z,90.78
2017-09-21T05:29:25.089Z,90.16
2017-09-21T05:30:25.071Z,89.69
2017-09-21T05:31:25.057Z,89.50
2017-09-21T05:32:25.040Z,88.84
2017-09-21T05:33:25.017Z,87.99
2017-09-21T05:34:24.999Z,87.75
2017-09-21T05:35:24.983Z,87.47
2017-09-21T05:36:24.964Z,85.77
2017-09-21T05:37:24.950Z,85.30
2017-09-21T05:38:24.928Z,84.73
2017-09-21T05:39:24.911Z,84.07
2017-09-21T05:40:24.892Z,83.31
2017-09-21T05:41:24.876Z,83.97
2017-09-21T05:42:24.858Z,85.16
2017-09-21T05:43:24.840Z,85.63
2017-09-21T05:44:24.822Z,85.72
2017-09-21T05:45:24.806Z,86.01
2017-09-21T05:46:24.789Z,86.38
2017-09-21T05:47:24.770Z,87.14
2017-09-21T05:48:24.752Z,87.05
2017-09-21T05:49:24.736Z,86.43
2017-09-21T05:50:24.719Z,85.49
2017-09-21T05:51:24.701Z,85.01
2017-09-21T05:52:24.684Z,84.49
2017-09-21T05:53:24.669Z,82.69
2017-09-21T05:54:24.651Z,81.65
2017-09-21T05:55:24.634Z,80.52
2017-09-21T05:56:24.617Z,80.71
2017-09-21T05:57:24.599Z,79.95
2017-09-21T05:58:24.585Z,79.24
2017-09-21T05:59:24.566Z,78.44
2017-09-21T06:00:24.549Z,77.82
2017-09-21T06:01:24.533Z,78.20
2017-09-21T06:02:24.516Z,77.53
2017-09-21T06:03:24.500Z,77.34
2017-09-21T06:04:24.482Z,76.31
2017-09-21T06:05:24.466Z,75.26
2017-09-21T06:06:24.451Z,75.07
2017-09-21T06:07:24.434Z,75.64
2017-09-21T06:08:24.417Z,74.98
2017-09-21T06:09:24.403Z,74.69
2017-09-21T06:10:24.384Z,74.51
2017-09-21T06:11:24.369Z,74.55
2017-09-21T06:12:24.351Z,73.69
2017-09-21T06:13:24.336Z,72.99
2017-09-21T06:14:24.321Z,74.13
2017-09-21T06:15:24.305Z,75.17
2017-09-21T06:16:24.287Z,76.68
2017-09-21T06:17:24.272Z,76.59
2017-09-21T06:18:24.258Z,76.02
2017-09-21T06:19:24.242Z,75.93
2017-09-21T06:20:24.227Z,74.41
2017-09-21T06:21:24.210Z,74.32
2017-09-21T06:22:24.195Z,73.47
2017-09-21T06:23:24.180Z,73.47
2017-09-21T06:24:24.165Z,73.60
2017-09-21T06:25:24.149Z,73.41
2017-09-21T06:26:24.137Z,73.18
2017-09-21T06:27:24.118Z,74.51
2017-09-21T06:28:24.101Z,74.79
2017-09-21T06:29:24.086Z,73.88
2017-09-21T06:30:24.071Z,72.75
2017-09-21T06:31:24.056Z,71.93
2017-09-21T06:32:24.040Z,70.98
2017-09-21T06:33:24.024Z,70.23
2017-09-21T06:34:24.010Z,69.95
2017-09-21T06:35:23.995Z,68.43
2017-09-21T06:36:23.980Z,67.68
2017-09-21T06:37:23.965Z,67.58
2017-09-21T06:38:23.951Z,67.96
2017-09-21T06:39:23.936Z,68.05
2017-09-21T06:40:23.920Z,67.71
2017-09-21T06:41:23.905Z,67.71
2017-09-21T06:42:23.890Z,66.95
2017-09-21T06:43:23.876Z,66.38
2017-09-21T06:44:23.859Z,66.47
2017-09-21T06:45:23.852Z,65.44
2017-09-21T06:46:23.831Z,65.15
2017-09-21T06:47:23.817Z,65.63
2017-09-21T06:48:23.802Z,64.61
2017-09-21T06:49:23.789Z,63.20
2017-09-21T06:50:23.775Z,62.82
2017-09-21T06:51:23.760Z,64.23
2017-09-21T06:52:23.745Z,64.42
2017-09-21T06:53:23.731Z,64.33
2017-09-21T06:54:23.717Z,63.23
2017-09-21T06:55:23.703Z,62.37
2017-09-21T06:56:23.689Z,61.52
2017-09-21T06:57:23.676Z,60.10
2017-09-21T06:58:23.661Z,59.91
2017-09-21T06:59:23.648Z,60.95
2017-09-21T07:00:23.633Z,59.69
2017-09-21T07:01:23.621Z,60.19
2017-09-21T07:02:23.608Z,59.91
2017-09-21T07:03:23.593Z,59.72
2017-09-21T07:04:23.579Z,58.67
2017-09-21T07:05:23.570Z,58.48
2017-09-21T07:06:23.552Z,58.01
2017-09-21T07:07:23.542Z,58.67
2017-09-21T07:08:23.525Z,58.77
2017-09-21T07:09:23.511Z,57.82
2017-09-21T07:10:23.498Z,58.11
2017-09-21T07:11:23.485Z,60.10
2017-09-21T07:12:23.470Z,59.18
2017-09-21T07:13:23.459Z,58.14
2017-09-21T07:14:23.444Z,57.54
2017-09-21T07:15:23.432Z,57.92
2017-09-21T07:16:23.417Z,58.20
2017-09-21T07:17:23.403Z,58.48
2017-09-21T07:18:23.390Z,57.82
2017-09-21T07:19:23.377Z,57.19
2017-09-21T07:20:51.044Z,58.04
2017-09-21T07:22:42.055Z,56.05
2017-09-21T07:22:42.453Z,54.98
2017-09-21T07:23:23.976Z,56.12
2017-09-21T07:24:23.322Z,57.76
2017-09-21T07:25:23.300Z,57.85
2017-09-21T07:26:23.285Z,56.81
2017-09-21T07:27:23.271Z,56.15
2017-09-21T07:28:23.271Z,56.24
2017-09-21T07:29:23.246Z,56.87
2017-09-21T07:30:23.232Z,58.29
2017-09-21T07:31:23.220Z,58.33
2017-09-21T07:32:23.209Z,58.14
2017-09-21T07:33:23.192Z,58.04
2017-09-21T07:34:23.197Z,58.14
2017-09-21T07:35:23.168Z,57.03
2017-09-21T07:36:23.154Z,56.65
2017-09-21T07:37:23.156Z,56.05
2017-09-21T07:38:23.129Z,56.84
2017-09-21T07:39:23.118Z,56.71
2017-09-21T07:40:23.103Z,56.71
2017-09-21T07:41:23.090Z,54.72
2017-09-21T07:42:23.077Z,54.91
2017-09-21T07:43:23.066Z,54.82
2017-09-21T07:44:23.051Z,55.29
2017-09-21T07:45:23.039Z,55.76
2017-09-21T07:46:23.026Z,55.67
2017-09-21T07:47:23.012Z,56.99
2017-09-21T07:48:24.254Z,56.90
2017-09-21T07:49:37.443Z,56.71
2017-09-21T07:50:22.975Z,56.99
2017-09-21T07:51:22.964Z,57.09
2017-09-21T07:52:22.950Z,57.38
2017-09-21T07:53:22.938Z,56.52
2017-09-21T07:54:22.925Z,57.19
2017-09-21T07:55:22.913Z,57.12
2017-09-21T07:56:22.901Z,57.50
2017-09-21T07:57:22.889Z,55.79
2017-09-21T07:58:22.876Z,53.89
2017-09-21T07:59:22.864Z,55.06
2017-09-21T08:00:22.852Z,55.91
2017-09-21T08:01:22.841Z,54.87
2017-09-21T08:02:22.830Z,54.90
2017-09-21T08:03:22.817Z,54.02
2017-09-21T08:04:22.806Z,53.26
2017-09-21T08:05:22.797Z,52.87
2017-09-21T08:06:22.782Z,53.61
2017-09-21T08:07:22.772Z,53.99
2017-09-21T08:08:22.759Z,54.18
2017-09-21T08:09:22.748Z,54.39
2017-09-21T08:10:22.736Z,54.97
2017-09-21T08:11:22.726Z,55.04
2017-09-21T08:12:22.712Z,56.71
2017-09-21T08:13:22.701Z,55.38
2017-09-21T08:14:22.689Z,54.91
2017-09-21T08:15:22.686Z,54.63
2017-09-21T08:16:22.668Z,54.72
2017-09-21T08:17:22.655Z,55.04
2017-09-21T08:18:22.644Z,54.94
2017-09-21T08:19:22.632Z,54.08
2017-09-21T08:20:22.619Z,54.27
2017-09-21T08:21:22.606Z,54.30
2017-09-21T08:22:22.595Z,53.45
2017-09-21T08:23:22.583Z,53.45
2017-09-21T08:24:22.571Z,53.07
2017-09-21T08:25:22.559Z,52.87
2017-09-21T08:26:22.548Z,52.02
2017-09-21T08:27:22.536Z,51.95
2017-09-21T08:28:22.522Z,51.29
2017-09-21T08:29:22.513Z,50.43
2017-09-21T08:30:22.500Z,49.84
2017-09-21T08:31:22.489Z,50.51
2017-09-21T08:32:22.476Z,50.79
2017-09-21T08:33:22.469Z,51.64
2017-09-21T08:34:22.455Z,51.64
2017-09-21T08:35:22.442Z,51.26
2017-09-21T08:36:22.430Z,52.22
2017-09-21T08:37:22.419Z,52.12
2017-09-21T08:38:22.406Z,52.87
2017-09-21T08:39:22.397Z,52.43
2017-09-21T08:40:22.384Z,51.39
2017-09-21T08:41:22.372Z,50.81
2017-09-21T08:42:22.360Z,51.57
2017-09-21T08:43:22.357Z,51.76
2017-09-21T08:44:22.336Z,52.05
2017-09-21T08:45:22.325Z,51.41
2017-09-21T08:46:22.316Z,50.37
2017-09-21T08:47:22.306Z,49.98
2017-09-21T08:48:22.292Z,49.89
2017-09-21T08:49:22.283Z,50.72
2017-09-21T08:50:22.273Z,50.98
2017-09-21T08:51:22.264Z,51.64
2017-09-21T08:52:22.254Z,51.36
2017-09-21T08:53:22.239Z,50.31
2017-09-21T08:54:22.229Z,50.31
2017-09-21T08:55:22.217Z,50.98
2017-09-21T08:56:22.205Z,50.24
2017-09-21T08:57:22.195Z,50.34
2017-09-21T08:58:22.184Z,50.05
2017-09-21T08:59:22.177Z,48.72
2017-09-21T09:00:22.161Z,49.04
2017-09-21T09:01:22.150Z,47.33
2017-09-21T09:02:22.139Z,46.37
2017-09-21T09:03:22.128Z,46.56
2017-09-21T09:04:22.116Z,46.75
2017-09-21T09:05:22.105Z,46.68
2017-09-21T09:06:22.094Z,45.64
2017-09-21T09:07:22.086Z,45.66
2017-09-21T09:08:22.074Z,44.40
2017-09-21T09:09:22.062Z,44.02
2017-09-21T09:10:22.051Z,44.33
2017-09-21T09:11:22.046Z,45.28
2017-09-21T09:12:22.029Z,43.80
2017-09-21T09:13:22.019Z,44.97
2017-09-21T09:14:22.014Z,45.42
2017-09-21T09:15:21.997Z,45.73
2017-09-21T09:16:21.986Z,45.83
2017-09-21T09:17:21.976Z,44.87
2017-09-21T09:18:21.966Z,44.40
2017-09-21T09:19:21.989Z,44.31
2017-09-21T09:20:21.944Z,45.52
2017-09-21T09:21:21.934Z,46.30
2017-09-21T09:22:21.923Z,45.83
2017-09-21T09:23:21.914Z,44.02
2017-09-21T09:24:21.902Z,43.57
2017-09-21T09:25:21.893Z,42.31
2017-09-21T09:26:21.881Z,42.60
2017-09-21T09:27:21.871Z,43.45
2017-09-21T09:28:21.864Z,44.09
2017-09-21T09:29:21.849Z,44.76
2017-09-21T09:30:21.839Z,45.71
2017-09-21T09:31:21.829Z,45.71
2017-09-21T09:32:21.818Z,46.00
2017-09-21T09:33:21.806Z,46.09
2017-09-21T09:34:21.798Z,46.09
2017-09-21T09:35:21.788Z,46.00
2017-09-21T09:36:21.779Z,46.00
2017-09-21T09:37:21.765Z,45.14
2017-09-21T09:38:21.756Z,45.54
2017-09-21T09:39:21.744Z,44.80
2017-09-21T09:40:21.734Z,44.33
2017-09-21T09:41:21.723Z,43.78
2017-09-21T09:42:21.713Z,41.69
2017-09-21T09:43:21.704Z,41.30
2017-09-21T09:44:21.693Z,40.92
2017-09-21T09:45:21.684Z,39.42
2017-09-21T09:46:21.674Z,39.99
2017-09-21T09:47:21.665Z,39.23
2017-09-21T09:48:21.654Z,39.32
2017-09-21T09:49:21.645Z,40.18
2017-09-21T09:50:21.635Z,40.28
2017-09-21T09:51:21.626Z,40.35
2017-09-21T09:52:21.616Z,39.59
2017-09-21T09:53:21.607Z,40.22
2017-09-21T09:54:21.595Z,42.69
2017-09-21T09:55:21.592Z,43.52
2017-09-21T09:56:21.575Z,44.87
2017-09-21T09:57:21.566Z,44.42
2017-09-21T09:58:21.559Z,43.47
2017-09-21T09:59:21.547Z,43.59
2017-09-21T10:00:21.535Z,41.95
2017-09-21T10:01:21.525Z,41.11
2017-09-21T10:02:21.516Z,41.38
2017-09-21T10:03:21.507Z,43.28
2017-09-21T10:04:21.496Z,43.40
2017-09-21T10:05:21.486Z,43.21
2017-09-21T10:06:21.476Z,41.04
2017-09-21T10:07:21.470Z,40.56
2017-09-21T10:08:21.456Z,40.37
2017-09-21T10:09:21.447Z,40.66
2017-09-21T10:10:21.437Z,41.71
2017-09-21T10:11:21.428Z,41.78
2017-09-21T10:12:21.417Z,43.28
2017-09-21T10:13:21.408Z,44.23
2017-09-21T10:14:21.399Z,45.28
2017-09-21T10:15:21.390Z,44.49
2017-09-21T10:16:21.379Z,44.19
2017-09-21T10:17:21.369Z,44.09
2017-09-21T10:18:21.360Z,44.68
2017-09-21T10:19:21.351Z,44.23
2017-09-21T10:20:21.340Z,43.59
2017-09-21T10:21:21.331Z,43.30
2017-09-21T10:22:21.334Z,42.08
2017-09-21T10:23:21.313Z,41.71
2017-09-21T10:24:21.302Z,41.69
2017-09-21T10:25:21.299Z,41.76
2017-09-21T10:26:21.283Z,43.16
2017-09-21T10:27:21.274Z,44.95
2017-09-21T10:28:21.263Z,46.56
2017-09-21T10:29:21.254Z,47.34
2017-09-21T10:30:21.245Z,46.61
2017-09-21T10:31:21.235Z,46.23
2017-09-21T10:32:21.224Z,44.90
2017-09-21T10:33:21.215Z,44.13
2017-09-21T10:34:21.207Z,43.11
2017-09-21T10:35:21.197Z,42.14
2017-09-21T10:36:21.186Z,42.16
2017-09-21T10:37:21.176Z,40.06
2017-09-21T10:38:21.167Z,39.59
2017-09-21T10:39:21.157Z,39.31
2017-09-21T10:40:21.147Z,38.90
2017-09-21T10:41:21.137Z,41.19
2017-09-21T10:42:21.128Z,41.66
2017-09-21T10:43:21.119Z,42.35
2017-09-21T10:44:21.106Z,43.21
2017-09-21T10:45:21.098Z,42.18
2017-09-21T10:46:21.088Z,41.33
2017-09-21T10:47:21.077Z,41.06
2017-09-21T10:48:21.069Z,39.94
2017-09-21T10:49:21.058Z,38.15
2017-09-21T10:50:21.051Z,35.57
2017-09-21T10:51:21.041Z,36.90
2017-09-21T10:52:21.031Z,38.24
2017-09-21T10:53:21.022Z,36.83
2017-09-21T10:54:21.017Z,36.07
2017-09-21T10:55:21.006Z,36.44
2017-09-21T10:56:20.997Z,36.27
2017-09-21T10:57:20.989Z,34.36
2017-09-21T10:58:20.980Z,33.12
2017-09-21T10:59:20.972Z,32.44
2017-09-21T11:00:20.964Z,33.85
2017-09-21T11:01:20.957Z,34.42
2017-09-21T11:02:20.988Z,34.54
2017-09-21T11:03:20.941Z,34.75
2017-09-21T11:04:20.931Z,33.89
2017-09-21T11:05:20.924Z,33.50
2017-09-21T11:06:20.916Z,33.41
2017-09-21T11:07:20.908Z,34.08
2017-09-21T11:08:20.900Z,33.70
2017-09-21T11:09:20.892Z,33.79
2017-09-21T11:10:20.884Z,33.89
2017-09-21T11:11:20.877Z,33.60
2017-09-21T11:12:20.867Z,34.14
2017-09-21T11:13:20.860Z,35.47
2017-09-21T11:14:20.852Z,36.43
2017-09-21T11:15:20.843Z,36.14
2017-09-21T11:16:20.835Z,36.44
2017-09-21T11:17:20.827Z,37.49
2017-09-21T11:18:20.819Z,37.02
2017-09-21T11:19:20.811Z,36.83
2017-09-21T11:20:20.802Z,36.44
2017-09-21T11:21:20.798Z,35.21
2017-09-21T11:22:20.786Z,34.92
2017-09-21T11:23:20.778Z,35.39
2017-09-21T11:24:20.768Z,36.14
2017-09-21T11:25:20.766Z,38.05
2017-09-21T11:26:20.789Z,37.84
2017-09-21T11:27:20.746Z,39.06
2017-09-21T11:28:20.736Z,41.49
2017-09-21T11:29:20.734Z,42.61
2017-09-21T11:30:20.720Z,43.19
2017-09-21T11:31:20.712Z,42.14
2017-09-21T11:32:20.727Z,40.64
2017-09-21T11:33:20.695Z,40.05
2017-09-21T11:34:20.686Z,39.76
2017-09-21T11:35:20.677Z,40.64
2017-09-21T11:36:20.673Z,42.28
2017-09-21T11:37:20.660Z,42.54
2017-09-21T11:38:20.652Z,44.23
2017-09-21T11:39:20.642Z,43.83
2017-09-21T11:40:20.633Z,44.57
2017-09-21T11:41:20.624Z,46.54
2017-09-21T11:42:20.617Z,48.32
2017-09-21T11:43:20.607Z,49.87
2017-09-21T11:44:20.597Z,50.53
2017-09-21T11:45:20.590Z,49.70
2017-09-21T11:46:20.579Z,47.39
2017-09-21T11:47:20.571Z,47.49
2017-09-21T11:48:20.561Z,47.49
2017-09-21T11:49:20.552Z,48.11
2017-09-21T11:50:20.543Z,45.28
2017-09-21T11:51:20.534Z,43.30
2017-09-21T11:52:20.524Z,41.92
2017-09-21T11:53:20.515Z,41.56
2017-09-21T11:54:20.506Z,41.46
2017-09-21T11:55:20.496Z,40.81
2017-09-21T11:56:20.487Z,38.64
2017-09-21T11:57:20.481Z,37.57
2017-09-21T11:58:20.470Z,39.00
2017-09-21T11:59:20.467Z,39.56
2017-09-21T12:00:20.452Z,41.75
2017-09-21T12:01:20.444Z,42.24
2017-09-21T12:02:20.436Z,43.49
2017-09-21T12:03:20.429Z,42.24
2017-09-21T12:04:20.421Z,40.44
2017-09-21T12:05:20.410Z,40.70
2017-09-21T12:06:20.403Z,41.17
2017-09-21T12:07:20.434Z,43.75
2017-09-21T12:08:20.385Z,43.75
2017-09-21T12:09:20.377Z,45.06
2017-09-21T12:10:20.367Z,44.37
2017-09-21T12:11:20.359Z,45.70
2017-09-21T12:12:20.350Z,45.92
2017-09-21T12:13:20.341Z,45.54
2017-09-21T12:14:20.333Z,45.99
2017-09-21T12:15:20.323Z,46.66
2017-09-21T12:16:20.315Z,48.42
2017-09-21T12:17:20.309Z,50.32
2017-09-21T12:18:20.296Z,50.89
2017-09-21T12:19:20.289Z,49.49
2017-09-21T12:20:20.279Z,47.87
2017-09-21T12:21:20.270Z,46.66
2017-09-21T12:22:20.261Z,45.95
2017-09-21T12:23:20.252Z,47.89
2017-09-21T12:24:20.242Z,50.81
2017-09-21T12:25:20.234Z,53.64
2017-09-21T12:26:20.225Z,54.97
2017-09-21T12:27:20.215Z,54.21
2017-09-21T12:28:20.205Z,54.68
2017-09-21T12:29:20.195Z,56.39
2017-09-21T12:30:20.187Z,56.74
2017-09-21T12:31:20.177Z,57.59
2017-09-21T12:32:20.166Z,58.26
2017-09-21T12:33:20.154Z,59.40
2017-09-21T12:34:20.145Z,59.30
2017-09-21T12:35:20.134Z,60.70
2017-09-21T12:36:20.124Z,62.88
2017-09-21T12:37:20.113Z,64.20
2017-09-21T12:38:20.103Z,63.60
2017-09-21T12:39:20.093Z,64.74
2017-09-21T12:40:20.080Z,66.45
2017-09-21T12:41:20.069Z,67.58
2017-09-21T12:42:20.058Z,66.83
2017-09-21T12:43:20.046Z,64.84
2017-09-21T12:44:20.034Z,65.22
2017-09-21T12:45:20.022Z,64.78
2017-09-21T12:46:20.010Z,62.78
2017-09-21T12:47:19.999Z,60.50
2017-09-21T12:48:19.987Z,60.79
2017-09-21T12:49:19.980Z,60.31
2017-09-21T12:50:19.963Z,60.50
2017-09-21T12:51:19.951Z,60.98
2017-09-21T12:52:19.939Z,61.55